PWSweather.com
Personal Weather Stations
Station Observations
KNEOMAHA433
Omaha, NE

Omaha, NE

Lat: 41.24621582, Lon: -96.20272064

Elevation: 1250

Station Type:

Latest ConditionsUpdated 8:39:00 PM CDT Sunday, May 19, 2019
Currently Today's Max Today's Min Today's Average
Temperature 51.6°F10.9°C 57.6°F14.2°C 51.6°F10.9°C 54.4°F12.4°C
Dew Point 41.7°F5.4°C 56.3°F13.5°C 41.2°F5.1°C 47.7°F8.7°C
Winds 0.2 mph SSW0.3 kmh SSW 4.0 mph -6.4 kmh - - 1.1 mph 1.8 kmh
Wind Gusts 1.1 mph1.8 kmh 5.8 mph9.3 kmh - -
Humidity 69% 97% 60% 79%
Pressure 29.82 in1009.8 mb 29.82 in1009.8 mb 29.48 in998.3 mb -
Hour Temp Dew Point Humidity Winds Wind Gusts Pressure Precip Precip Rate Daily Precip Total
08:39 PM 51.6°F10.9°C 41.7°F5.4°C 69% 0.2 mph SSW0.3 kmh SSW 1.1 mph1.8 kmh 29.82 in1009.8 mb 0.00 in0.0 mm 0.00 in0.0 mm 0.00 in0.0 mm
08:34 PM 51.6°F10.9°C 41.7°F5.4°C 69% Calm Calm -- 29.82 in1009.8 mb 0.00 in0.0 mm 0.00 in0.0 mm 0.00 in0.0 mm
08:29 PM 51.8°F11.0°C 41.2°F5.1°C 67% 1.3 mph SW2.1 kmh SW 2.2 mph3.5 kmh 29.82 in1009.8 mb 0.00 in0.0 mm 0.00 in0.0 mm 0.00 in0.0 mm
08:24 PM 51.8°F11.0°C 41.5°F5.3°C 68% 0.2 mph SE0.3 kmh SE 1.1 mph1.8 kmh 29.82 in1009.8 mb 0.00 in0.0 mm 0.00 in0.0 mm 0.00 in0.0 mm
08:19 PM 51.8°F11.0°C 42.4°F5.8°C 70% Calm Calm -- 29.82 in1009.8 mb 0.00 in0.0 mm 0.00 in0.0 mm 0.00 in0.0 mm
08:14 PM 51.8°F11.0°C 41.9°F5.5°C 69% 0.2 mph SSW0.3 kmh SSW 1.1 mph1.8 kmh 29.82 in1009.8 mb 0.00 in0.0 mm 0.00 in0.0 mm 0.00 in0.0 mm
08:09 PM 52.0°F11.1°C 41.7°F5.4°C 68% Calm Calm -- 29.81 in1009.5 mb 0.00 in0.0 mm 0.00 in0.0 mm 0.00 in0.0 mm
08:04 PM 52.0°F11.1°C 42.4°F5.8°C 70% Calm Calm -- 29.82 in1009.8 mb 0.00 in0.0 mm 0.00 in0.0 mm 0.00 in0.0 mm
07:59 PM 52.2°F11.2°C 41.2°F5.1°C 66% 0.2 mph SSW0.3 kmh SSW 1.1 mph1.8 kmh 29.81 in1009.5 mb 0.00 in0.0 mm 0.00 in0.0 mm 0.00 in0.0 mm
07:54 PM 52.2°F11.2°C 41.9°F5.5°C 68% Calm Calm -- 29.82 in1009.8 mb 0.00 in0.0 mm 0.00 in0.0 mm 0.00 in0.0 mm
07:49 PM 52.2°F11.2°C 41.9°F5.5°C 68% 0.9 mph SSW1.4 kmh SSW 1.1 mph1.8 kmh 29.81 in1009.5 mb 0.00 in0.0 mm 0.00 in0.0 mm 0.00 in0.0 mm
07:44 PM 52.2°F11.2°C 42.3°F5.7°C 69% 1.8 mph SSW2.9 kmh SSW 2.2 mph3.5 kmh 29.81 in1009.5 mb 0.00 in0.0 mm 0.00 in0.0 mm 0.00 in0.0 mm
07:39 PM 52.2°F11.2°C 41.5°F5.3°C 67% 1.3 mph SW2.1 kmh SW 2.2 mph3.5 kmh 29.81 in1009.5 mb 0.00 in0.0 mm 0.00 in0.0 mm 0.00 in0.0 mm
07:34 PM 52.2°F11.2°C 41.2°F5.1°C 66% 0.4 mph SW0.6 kmh SW 1.1 mph1.8 kmh 29.81 in1009.5 mb 0.00 in0.0 mm 0.00 in0.0 mm 0.00 in0.0 mm
07:29 PM 52.0°F11.1°C 42.1°F5.6°C 69% 0.4 mph S0.6 kmh S 1.1 mph1.8 kmh 29.81 in1009.5 mb 0.00 in0.0 mm 0.00 in0.0 mm 0.00 in0.0 mm
07:24 PM 52.2°F11.2°C 41.5°F5.3°C 67% 1.1 mph SW1.8 kmh SW 2.2 mph3.5 kmh 29.81 in1009.5 mb 0.00 in0.0 mm 0.00 in0.0 mm 0.00 in0.0 mm
07:19 PM 52.2°F11.2°C 42.3°F5.7°C 69% Calm Calm -- 29.81 in1009.5 mb 0.00 in0.0 mm 0.00 in0.0 mm 0.00 in0.0 mm
07:14 PM 52.2°F11.2°C 41.9°F5.5°C 68% 3.1 mph SSW5.0 kmh SSW 3.4 mph5.5 kmh 29.80 in1009.1 mb 0.00 in0.0 mm 0.00 in0.0 mm 0.00 in0.0 mm
07:09 PM 52.3°F11.3°C 42.1°F5.6°C 68% 1.1 mph S1.8 kmh S 1.1 mph1.8 kmh 29.80 in1009.1 mb 0.00 in0.0 mm 0.00 in0.0 mm 0.00 in0.0 mm
07:04 PM 52.5°F11.4°C 41.9°F5.5°C 67% 0.9 mph S1.4 kmh S 1.1 mph1.8 kmh 29.80 in1009.1 mb 0.00 in0.0 mm 0.00 in0.0 mm 0.00 in0.0 mm
06:59 PM 52.7°F11.5°C 42.4°F5.8°C 68% 0.9 mph SSW1.4 kmh SSW 1.1 mph1.8 kmh 29.79 in1008.8 mb 0.00 in0.0 mm 0.00 in0.0 mm 0.00 in0.0 mm
06:54 PM 52.9°F11.6°C 42.3°F5.7°C 67% 1.1 mph WSW1.8 kmh WSW 1.1 mph1.8 kmh 29.80 in1009.1 mb 0.00 in0.0 mm 0.00 in0.0 mm 0.00 in0.0 mm
06:49 PM 53.1°F11.7°C 42.4°F5.8°C 67% 0.2 mph SSW0.3 kmh SSW 1.1 mph1.8 kmh 29.80 in1009.1 mb 0.00 in0.0 mm 0.00 in0.0 mm 0.00 in0.0 mm
06:44 PM 53.4°F11.9°C 42.4°F5.8°C 66% 0.9 mph SW1.4 kmh SW 1.1 mph1.8 kmh 29.79 in1008.8 mb 0.00 in0.0 mm 0.00 in0.0 mm 0.00 in0.0 mm
06:39 PM 53.6°F12.0°C 42.1°F5.6°C 65% Calm Calm -- 29.79 in1008.8 mb 0.00 in0.0 mm 0.00 in0.0 mm 0.00 in0.0 mm
06:34 PM 53.2°F11.8°C 41.4°F5.2°C 64% 1.8 mph S2.9 kmh S 2.2 mph3.5 kmh 29.80 in1009.1 mb 0.00 in0.0 mm 0.00 in0.0 mm 0.00 in0.0 mm
06:29 PM 53.4°F11.9°C 41.9°F5.5°C 65% 3.6 mph S5.8 kmh S 4.5 mph7.2 kmh 29.79 in1008.8 mb 0.00 in0.0 mm 0.00 in0.0 mm 0.00 in0.0 mm
06:24 PM 53.4°F11.9°C 41.9°F5.5°C 65% 2.2 mph W3.5 kmh W 3.4 mph5.5 kmh 29.79 in1008.8 mb 0.00 in0.0 mm 0.00 in0.0 mm 0.00 in0.0 mm
06:19 PM 53.8°F12.1°C 42.3°F5.7°C 65% 1.3 mph S2.1 kmh S 2.2 mph3.5 kmh 29.79 in1008.8 mb 0.00 in0.0 mm 0.00 in0.0 mm 0.00 in0.0 mm
06:14 PM 54.3°F12.4°C 42.8°F6.0°C 65% 2.2 mph SE3.5 kmh SE 2.2 mph3.5 kmh 29.79 in1008.8 mb 0.00 in0.0 mm 0.00 in0.0 mm 0.00 in0.0 mm
06:09 PM 54.1°F12.3°C 42.6°F5.9°C 65% 1.1 mph NW1.8 kmh NW 2.2 mph3.5 kmh 29.79 in1008.8 mb 0.00 in0.0 mm 0.00 in0.0 mm 0.00 in0.0 mm
06:04 PM 54.1°F12.3°C 43.9°F6.6°C 68% 0.9 mph SSW1.4 kmh SSW 1.1 mph1.8 kmh 29.79 in1008.8 mb 0.00 in0.0 mm 0.00 in0.0 mm 0.00 in0.0 mm
05:59 PM 54.1°F12.3°C 43.0°F6.1°C 66% 1.3 mph SW2.1 kmh SW 2.2 mph3.5 kmh 29.78 in1008.5 mb 0.00 in0.0 mm 0.00 in0.0 mm 0.00 in0.0 mm
05:54 PM 54.0°F12.2°C 43.2°F6.2°C 67% 0.2 mph SSW0.3 kmh SSW 1.1 mph1.8 kmh 29.79 in1008.8 mb 0.00 in0.0 mm 0.00 in0.0 mm 0.00 in0.0 mm
05:49 PM 54.0°F12.2°C 42.1°F5.6°C 64% 0.4 mph SSW0.6 kmh SSW 1.1 mph1.8 kmh 29.78 in1008.5 mb 0.00 in0.0 mm 0.00 in0.0 mm 0.00 in0.0 mm
05:44 PM 53.8°F12.1°C 42.3°F5.7°C 65% 1.8 mph S2.9 kmh S 2.2 mph3.5 kmh 29.78 in1008.5 mb 0.00 in0.0 mm 0.00 in0.0 mm 0.00 in0.0 mm
05:39 PM 54.0°F12.2°C 42.4°F5.8°C 65% 2.9 mph S4.7 kmh S 3.4 mph5.5 kmh 29.78 in1008.5 mb 0.00 in0.0 mm 0.00 in0.0 mm 0.00 in0.0 mm
05:34 PM 54.0°F12.2°C 43.2°F6.2°C 67% 0.2 mph S0.3 kmh S 1.1 mph1.8 kmh 29.78 in1008.5 mb 0.00 in0.0 mm 0.00 in0.0 mm 0.00 in0.0 mm
05:29 PM 53.6°F12.0°C 42.6°F5.9°C 66% 0.7 mph SW1.1 kmh SW 1.1 mph1.8 kmh 29.77 in1008.1 mb 0.00 in0.0 mm 0.00 in0.0 mm 0.00 in0.0 mm
05:24 PM 53.8°F12.1°C 43.9°F6.6°C 69% 2.2 mph E3.5 kmh E 3.4 mph5.5 kmh 29.78 in1008.5 mb 0.00 in0.0 mm 0.00 in0.0 mm 0.00 in0.0 mm
05:19 PM 54.0°F12.2°C 43.2°F6.2°C 67% 1.8 mph W2.9 kmh W 3.4 mph5.5 kmh 29.78 in1008.5 mb 0.00 in0.0 mm 0.00 in0.0 mm 0.00 in0.0 mm
05:14 PM 54.3°F12.4°C 43.5°F6.4°C 67% 0.9 mph W1.4 kmh W 2.2 mph3.5 kmh 29.78 in1008.5 mb 0.00 in0.0 mm 0.00 in0.0 mm 0.00 in0.0 mm
05:09 PM 54.3°F12.4°C 44.4°F6.9°C 69% 1.1 mph SSW1.8 kmh SSW 1.1 mph1.8 kmh 29.78 in1008.5 mb 0.00 in0.0 mm 0.00 in0.0 mm 0.00 in0.0 mm
05:04 PM 54.1°F12.3°C 44.2°F6.8°C 69% 0.9 mph W1.4 kmh W 1.1 mph1.8 kmh 29.78 in1008.5 mb 0.00 in0.0 mm 0.00 in0.0 mm 0.00 in0.0 mm
04:59 PM 54.3°F12.4°C 43.5°F6.4°C 67% 0.9 mph SSW1.4 kmh SSW 1.1 mph1.8 kmh 29.78 in1008.5 mb 0.00 in0.0 mm 0.00 in0.0 mm 0.00 in0.0 mm
04:54 PM 55.0°F12.8°C 43.5°F6.4°C 65% 1.6 mph WSW2.6 kmh WSW 2.2 mph3.5 kmh 29.78 in1008.5 mb 0.00 in0.0 mm 0.00 in0.0 mm 0.00 in0.0 mm
04:49 PM 55.6°F13.1°C 42.4°F5.8°C 61% 2.2 mph WSW3.5 kmh WSW 2.2 mph3.5 kmh 29.78 in1008.5 mb 0.00 in0.0 mm 0.00 in0.0 mm 0.00 in0.0 mm
04:44 PM 55.4°F13.0°C 43.0°F6.1°C 63% 1.6 mph SSW2.6 kmh SSW 2.2 mph3.5 kmh 29.77 in1008.1 mb 0.00 in0.0 mm 0.00 in0.0 mm 0.00 in0.0 mm
04:39 PM 55.0°F12.8°C 43.9°F6.6°C 66% 0.9 mph SSE1.4 kmh SSE 1.1 mph1.8 kmh 29.76 in1007.8 mb 0.00 in0.0 mm 0.00 in0.0 mm 0.00 in0.0 mm
04:34 PM 54.7°F12.6°C 43.9°F6.6°C 67% 0.9 mph SSW1.4 kmh SSW 1.1 mph1.8 kmh 29.77 in1008.1 mb 0.00 in0.0 mm 0.00 in0.0 mm 0.00 in0.0 mm
04:29 PM 55.4°F13.0°C 43.9°F6.6°C 65% 1.3 mph S2.1 kmh S 3.4 mph5.5 kmh 29.77 in1008.1 mb 0.00 in0.0 mm 0.00 in0.0 mm 0.00 in0.0 mm
04:24 PM 55.9°F13.3°C 42.3°F5.7°C 60% 0.9 mph SE1.4 kmh SE 2.2 mph3.5 kmh 29.76 in1007.8 mb 0.00 in0.0 mm 0.00 in0.0 mm 0.00 in0.0 mm
04:19 PM 55.8°F13.2°C 43.3°F6.3°C 63% 1.1 mph SW1.8 kmh SW 2.2 mph3.5 kmh 29.76 in1007.8 mb 0.00 in0.0 mm 0.00 in0.0 mm 0.00 in0.0 mm
04:14 PM 55.9°F13.3°C 42.6°F5.9°C 61% 1.3 mph SW2.1 kmh SW 2.2 mph3.5 kmh 29.76 in1007.8 mb 0.00 in0.0 mm 0.00 in0.0 mm 0.00 in0.0 mm
04:09 PM 56.3°F13.5°C 44.2°F6.8°C 64% 0.7 mph SSE1.1 kmh SSE 1.1 mph1.8 kmh 29.77 in1008.1 mb 0.00 in0.0 mm 0.00 in0.0 mm 0.00 in0.0 mm
04:04 PM 56.3°F13.5°C 43.5°F6.4°C 62% 1.1 mph SSW1.8 kmh SSW 1.1 mph1.8 kmh 29.76 in1007.8 mb 0.00 in0.0 mm 0.00 in0.0 mm 0.00 in0.0 mm
03:59 PM 55.9°F13.3°C 43.2°F6.2°C 62% 0.9 mph SSW1.4 kmh SSW 2.2 mph3.5 kmh 29.75 in1007.5 mb 0.00 in0.0 mm 0.00 in0.0 mm 0.00 in0.0 mm
03:54 PM 55.4°F13.0°C 43.0°F6.1°C 63% 1.3 mph WSW2.1 kmh WSW 2.2 mph3.5 kmh 29.76 in1007.8 mb 0.00 in0.0 mm 0.00 in0.0 mm 0.00 in0.0 mm
03:49 PM 55.2°F12.9°C 42.8°F6.0°C 63% 0.7 mph S1.1 kmh S 1.1 mph1.8 kmh 29.75 in1007.5 mb 0.00 in0.0 mm 0.00 in0.0 mm 0.00 in0.0 mm
03:44 PM 55.6°F13.1°C 43.5°F6.4°C 64% 0.7 mph SW1.1 kmh SW 1.1 mph1.8 kmh 29.75 in1007.5 mb 0.00 in0.0 mm 0.00 in0.0 mm 0.00 in0.0 mm
03:39 PM 56.1°F13.4°C 44.6°F7.0°C 65% 0.9 mph WSW1.4 kmh WSW 1.1 mph1.8 kmh 29.75 in1007.5 mb 0.00 in0.0 mm 0.00 in0.0 mm 0.00 in0.0 mm
03:34 PM 56.5°F13.6°C 44.1°F6.7°C 63% 2.0 mph SSW3.2 kmh SSW 2.2 mph3.5 kmh 29.75 in1007.5 mb 0.00 in0.0 mm 0.00 in0.0 mm 0.00 in0.0 mm
03:29 PM 56.3°F13.5°C 44.2°F6.8°C 64% 1.8 mph SW2.9 kmh SW 2.2 mph3.5 kmh 29.75 in1007.5 mb 0.00 in0.0 mm 0.00 in0.0 mm 0.00 in0.0 mm
03:24 PM 56.3°F13.5°C 43.9°F6.6°C 63% 1.8 mph S2.9 kmh S 2.2 mph3.5 kmh 29.75 in1007.5 mb 0.00 in0.0 mm 0.00 in0.0 mm 0.00 in0.0 mm
03:19 PM 56.5°F13.6°C 45.0°F7.2°C 65% 1.1 mph SW1.8 kmh SW 2.2 mph3.5 kmh 29.74 in1007.1 mb 0.00 in0.0 mm 0.00 in0.0 mm 0.00 in0.0 mm
03:14 PM 56.3°F13.5°C 44.8°F7.1°C 65% 1.1 mph SSW1.8 kmh SSW 1.1 mph1.8 kmh 29.75 in1007.5 mb 0.00 in0.0 mm 0.00 in0.0 mm 0.00 in0.0 mm
03:09 PM 56.5°F13.6°C 43.7°F6.5°C 62% 1.8 mph SSW2.9 kmh SSW 2.2 mph3.5 kmh 29.74 in1007.1 mb 0.00 in0.0 mm 0.00 in0.0 mm 0.00 in0.0 mm
03:04 PM 56.7°F13.7°C 44.2°F6.8°C 63% 1.8 mph W2.9 kmh W 3.4 mph5.5 kmh 29.74 in1007.1 mb 0.00 in0.0 mm 0.00 in0.0 mm 0.00 in0.0 mm
02:59 PM 56.7°F13.7°C 44.2°F6.8°C 63% 1.6 mph S2.6 kmh S 2.2 mph3.5 kmh 29.74 in1007.1 mb 0.00 in0.0 mm 0.00 in0.0 mm 0.00 in0.0 mm
02:54 PM 56.3°F13.5°C 43.9°F6.6°C 63% 1.3 mph NE2.1 kmh NE 2.2 mph3.5 kmh 29.74 in1007.1 mb 0.00 in0.0 mm 0.00 in0.0 mm 0.00 in0.0 mm
02:49 PM 56.5°F13.6°C 45.0°F7.2°C 65% 1.3 mph SSW2.1 kmh SSW 2.2 mph3.5 kmh 29.74 in1007.1 mb 0.00 in0.0 mm 0.00 in0.0 mm 0.00 in0.0 mm
02:44 PM 56.8°F13.8°C 43.9°F6.6°C 62% 1.6 mph S2.6 kmh S 2.2 mph3.5 kmh 29.74 in1007.1 mb 0.00 in0.0 mm 0.00 in0.0 mm 0.00 in0.0 mm
02:39 PM 56.7°F13.7°C 45.1°F7.3°C 65% 2.2 mph SW3.5 kmh SW 3.4 mph5.5 kmh 29.74 in1007.1 mb 0.00 in0.0 mm 0.00 in0.0 mm 0.00 in0.0 mm
02:34 PM 56.7°F13.7°C 44.6°F7.0°C 64% 0.4 mph SW0.6 kmh SW 1.1 mph1.8 kmh 29.73 in1006.8 mb 0.00 in0.0 mm 0.00 in0.0 mm 0.00 in0.0 mm
02:29 PM 57.0°F13.9°C 44.6°F7.0°C 63% 4.0 mph SW6.4 kmh SW 4.5 mph7.2 kmh 29.73 in1006.8 mb 0.00 in0.0 mm 0.00 in0.0 mm 0.00 in0.0 mm
02:24 PM 56.7°F13.7°C 43.9°F6.6°C 62% 2.9 mph SSW4.7 kmh SSW 3.4 mph5.5 kmh 29.72 in1006.4 mb 0.00 in0.0 mm 0.00 in0.0 mm 0.00 in0.0 mm
02:19 PM 55.9°F13.3°C 44.8°F7.1°C 66% 2.9 mph NE4.7 kmh NE 5.8 mph9.3 kmh 29.73 in1006.8 mb 0.00 in0.0 mm 0.00 in0.0 mm 0.00 in0.0 mm
02:14 PM 55.6°F13.1°C 44.4°F6.9°C 66% 0.9 mph SW1.4 kmh SW 1.1 mph1.8 kmh 29.72 in1006.4 mb 0.00 in0.0 mm 0.00 in0.0 mm 0.00 in0.0 mm
02:09 PM 56.5°F13.6°C 45.3°F7.4°C 66% 1.6 mph SSW2.6 kmh SSW 2.2 mph3.5 kmh 29.72 in1006.4 mb 0.00 in0.0 mm 0.00 in0.0 mm 0.00 in0.0 mm
02:04 PM 57.6°F14.2°C 45.9°F7.7°C 65% 2.2 mph S3.5 kmh S 3.4 mph5.5 kmh 29.72 in1006.4 mb 0.00 in0.0 mm 0.00 in0.0 mm 0.00 in0.0 mm
01:59 PM 57.0°F13.9°C 45.3°F7.4°C 65% 1.8 mph W2.9 kmh W 2.2 mph3.5 kmh 29.71 in1006.1 mb 0.00 in0.0 mm 0.00 in0.0 mm 0.00 in0.0 mm
01:54 PM 55.9°F13.3°C 45.1°F7.3°C 67% 1.3 mph W2.1 kmh W 2.2 mph3.5 kmh 29.72 in1006.4 mb 0.00 in0.0 mm 0.00 in0.0 mm 0.00 in0.0 mm
01:49 PM 55.4°F13.0°C 44.6°F7.0°C 67% 2.0 mph SSE3.2 kmh SSE 3.4 mph5.5 kmh 29.71 in1006.1 mb 0.00 in0.0 mm 0.00 in0.0 mm 0.00 in0.0 mm
01:44 PM 55.2°F12.9°C 46.0°F7.8°C 71% 2.2 mph WSW3.5 kmh WSW 2.2 mph3.5 kmh 29.71 in1006.1 mb 0.00 in0.0 mm 0.00 in0.0 mm 0.00 in0.0 mm
01:39 PM 55.4°F13.0°C 45.5°F7.5°C 69% 1.3 mph W2.1 kmh W 3.4 mph5.5 kmh 29.71 in1006.1 mb 0.00 in0.0 mm 0.00 in0.0 mm 0.00 in0.0 mm
01:34 PM 55.9°F13.3°C 45.1°F7.3°C 67% 2.2 mph WSW3.5 kmh WSW 3.4 mph5.5 kmh 29.70 in1005.8 mb 0.00 in0.0 mm 0.00 in0.0 mm 0.00 in0.0 mm
01:29 PM 56.3°F13.5°C 45.9°F7.7°C 68% 0.2 mph SSW0.3 kmh SSW 1.1 mph1.8 kmh 29.70 in1005.8 mb 0.00 in0.0 mm 0.00 in0.0 mm 0.00 in0.0 mm
01:24 PM 56.8°F13.8°C 46.0°F7.8°C 67% 2.0 mph SSE3.2 kmh SSE 3.4 mph5.5 kmh 29.69 in1005.4 mb 0.00 in0.0 mm 0.00 in0.0 mm 0.00 in0.0 mm
01:19 PM 56.7°F13.7°C 45.9°F7.7°C 67% 0.7 mph S1.1 kmh S 1.1 mph1.8 kmh 29.69 in1005.4 mb 0.00 in0.0 mm 0.00 in0.0 mm 0.00 in0.0 mm
01:14 PM 56.1°F13.4°C 45.7°F7.6°C 68% 0.7 mph SSW1.1 kmh SSW 1.1 mph1.8 kmh 29.69 in1005.4 mb 0.00 in0.0 mm 0.00 in0.0 mm 0.00 in0.0 mm
01:09 PM 56.3°F13.5°C 45.9°F7.7°C 68% 1.8 mph SSE2.9 kmh SSE 2.2 mph3.5 kmh 29.69 in1005.4 mb 0.00 in0.0 mm 0.00 in0.0 mm 0.00 in0.0 mm
01:04 PM 56.3°F13.5°C 46.2°F7.9°C 69% 2.5 mph SE4.0 kmh SE 3.4 mph5.5 kmh 29.70 in1005.8 mb 0.00 in0.0 mm 0.00 in0.0 mm 0.00 in0.0 mm
12:59 PM 55.8°F13.2°C 45.3°F7.4°C 68% 2.2 mph S3.5 kmh S 3.4 mph5.5 kmh 29.70 in1005.8 mb 0.00 in0.0 mm 0.00 in0.0 mm 0.00 in0.0 mm
12:54 PM 55.8°F13.2°C 45.7°F7.6°C 69% 2.7 mph WSW4.3 kmh WSW 3.4 mph5.5 kmh 29.69 in1005.4 mb 0.00 in0.0 mm 0.00 in0.0 mm 0.00 in0.0 mm
12:49 PM 56.1°F13.4°C 45.3°F7.4°C 67% 0.7 mph SE1.1 kmh SE 1.1 mph1.8 kmh 29.70 in1005.8 mb 0.00 in0.0 mm 0.00 in0.0 mm 0.00 in0.0 mm
12:44 PM 56.1°F13.4°C 46.0°F7.8°C 69% 2.2 mph S3.5 kmh S 2.2 mph3.5 kmh 29.69 in1005.4 mb 0.00 in0.0 mm 0.00 in0.0 mm 0.00 in0.0 mm
12:39 PM 55.6°F13.1°C 45.1°F7.3°C 68% 0.2 mph S0.3 kmh S 1.1 mph1.8 kmh 29.69 in1005.4 mb 0.00 in0.0 mm 0.00 in0.0 mm 0.00 in0.0 mm
12:34 PM 56.5°F13.6°C 45.0°F7.2°C 65% 4.0 mph WNW6.4 kmh WNW 5.8 mph9.3 kmh 29.70 in1005.8 mb 0.00 in0.0 mm 0.00 in0.0 mm 0.00 in0.0 mm
12:29 PM 56.7°F13.7°C 45.9°F7.7°C 67% 0.9 mph SSW1.4 kmh SSW 1.1 mph1.8 kmh 29.68 in1005.1 mb 0.00 in0.0 mm 0.00 in0.0 mm 0.00 in0.0 mm
12:24 PM 56.1°F13.4°C 46.0°F7.8°C 69% 2.5 mph SSW4.0 kmh SSW 3.4 mph5.5 kmh 29.69 in1005.4 mb 0.00 in0.0 mm 0.00 in0.0 mm 0.00 in0.0 mm
12:19 PM 55.9°F13.3°C 45.5°F7.5°C 68% 1.3 mph WSW2.1 kmh WSW 3.4 mph5.5 kmh 29.69 in1005.4 mb 0.00 in0.0 mm 0.00 in0.0 mm 0.00 in0.0 mm
12:14 PM 55.9°F13.3°C 45.5°F7.5°C 68% 2.0 mph E3.2 kmh E 4.5 mph7.2 kmh 29.70 in1005.8 mb 0.00 in0.0 mm 0.00 in0.0 mm 0.00 in0.0 mm
12:09 PM 56.3°F13.5°C 45.5°F7.5°C 67% 3.8 mph SSW6.1 kmh SSW 4.5 mph7.2 kmh 29.69 in1005.4 mb 0.00 in0.0 mm 0.00 in0.0 mm 0.00 in0.0 mm
12:04 PM 56.3°F13.5°C 46.8°F8.2°C 70% 2.2 mph SSW3.5 kmh SSW 3.4 mph5.5 kmh 29.68 in1005.1 mb 0.00 in0.0 mm 0.00 in0.0 mm 0.00 in0.0 mm
11:59 AM 56.1°F13.4°C 46.8°F8.2°C 71% 1.3 mph SSW2.1 kmh SSW 2.2 mph3.5 kmh 29.68 in1005.1 mb 0.00 in0.0 mm 0.00 in0.0 mm 0.00 in0.0 mm
11:54 AM 55.8°F13.2°C 46.2°F7.9°C 70% 1.8 mph S2.9 kmh S 2.2 mph3.5 kmh 29.68 in1005.1 mb 0.00 in0.0 mm 0.00 in0.0 mm 0.00 in0.0 mm
11:49 AM 54.5°F12.5°C 46.4°F8.0°C 74% 2.9 mph SW4.7 kmh SW 3.4 mph5.5 kmh 29.68 in1005.1 mb 0.00 in0.0 mm 0.00 in0.0 mm 0.00 in0.0 mm
11:44 AM 53.8°F12.1°C 46.0°F7.8°C 75% 1.1 mph SW1.8 kmh SW 2.2 mph3.5 kmh 29.68 in1005.1 mb 0.00 in0.0 mm 0.00 in0.0 mm 0.00 in0.0 mm
11:39 AM 54.1°F12.3°C 46.0°F7.8°C 74% 1.8 mph SSW2.9 kmh SSW 2.2 mph3.5 kmh 29.68 in1005.1 mb 0.00 in0.0 mm 0.00 in0.0 mm 0.00 in0.0 mm
11:34 AM 54.3°F12.4°C 46.9°F8.3°C 76% 2.9 mph S4.7 kmh S 4.5 mph7.2 kmh 29.67 in1004.7 mb 0.00 in0.0 mm 0.00 in0.0 mm 0.00 in0.0 mm
11:29 AM 54.1°F12.3°C 46.0°F7.8°C 74% 2.5 mph SSW4.0 kmh SSW 3.4 mph5.5 kmh 29.67 in1004.7 mb 0.00 in0.0 mm 0.00 in0.0 mm 0.00 in0.0 mm
11:24 AM 53.8°F12.1°C 46.0°F7.8°C 75% 0.9 mph SW1.4 kmh SW 2.2 mph3.5 kmh 29.67 in1004.7 mb 0.00 in0.0 mm 0.00 in0.0 mm 0.00 in0.0 mm
11:19 AM 53.8°F12.1°C 45.7°F7.6°C 74% 2.5 mph SSW4.0 kmh SSW 3.4 mph5.5 kmh 29.66 in1004.4 mb 0.00 in0.0 mm 0.00 in0.0 mm 0.00 in0.0 mm
11:14 AM 53.8°F12.1°C 46.8°F8.2°C 77% 1.3 mph WSW2.1 kmh WSW 2.2 mph3.5 kmh 29.66 in1004.4 mb 0.00 in0.0 mm 0.00 in0.0 mm 0.00 in0.0 mm
11:09 AM 53.8°F12.1°C 46.8°F8.2°C 77% 1.3 mph SW2.1 kmh SW 2.2 mph3.5 kmh 29.66 in1004.4 mb 0.00 in0.0 mm 0.00 in0.0 mm 0.00 in0.0 mm
11:04 AM 53.8°F12.1°C 46.8°F8.2°C 77% 3.1 mph WSW5.0 kmh WSW 4.5 mph7.2 kmh 29.65 in1004.1 mb 0.00 in0.0 mm 0.00 in0.0 mm 0.00 in0.0 mm
10:59 AM 53.8°F12.1°C 47.1°F8.4°C 78% 0.7 mph SSW1.1 kmh SSW 1.1 mph1.8 kmh 29.65 in1004.1 mb 0.00 in0.0 mm 0.00 in0.0 mm 0.00 in0.0 mm
10:54 AM 53.6°F12.0°C 46.2°F7.9°C 76% 2.2 mph SSW3.5 kmh SSW 2.2 mph3.5 kmh 29.64 in1003.7 mb 0.00 in0.0 mm 0.00 in0.0 mm 0.00 in0.0 mm
10:49 AM 53.6°F12.0°C 46.9°F8.3°C 78% 1.8 mph SE2.9 kmh SE 2.2 mph3.5 kmh 29.63 in1003.4 mb 0.00 in0.0 mm 0.00 in0.0 mm 0.00 in0.0 mm
10:44 AM 54.1°F12.3°C 47.5°F8.6°C 78% 1.3 mph SSE2.1 kmh SSE 2.2 mph3.5 kmh 29.64 in1003.7 mb 0.00 in0.0 mm 0.00 in0.0 mm 0.00 in0.0 mm
10:39 AM 54.3°F12.4°C 47.7°F8.7°C 78% 0.9 mph SSW1.4 kmh SSW 1.1 mph1.8 kmh 29.63 in1003.4 mb 0.00 in0.0 mm 0.00 in0.0 mm 0.00 in0.0 mm
10:34 AM 54.3°F12.4°C 48.2°F9.0°C 80% 0.7 mph SSW1.1 kmh SSW 1.1 mph1.8 kmh 29.63 in1003.4 mb 0.00 in0.0 mm 0.00 in0.0 mm 0.00 in0.0 mm
10:29 AM 54.7°F12.6°C 48.0°F8.9°C 78% 1.8 mph SSW2.9 kmh SSW 2.2 mph3.5 kmh 29.63 in1003.4 mb 0.00 in0.0 mm 0.00 in0.0 mm 0.00 in0.0 mm
10:24 AM 55.2°F12.9°C 48.9°F9.4°C 79% 0.9 mph W1.4 kmh W 1.1 mph1.8 kmh 29.63 in1003.4 mb 0.00 in0.0 mm 0.00 in0.0 mm 0.00 in0.0 mm
10:19 AM 54.9°F12.7°C 48.2°F9.0°C 78% 1.3 mph SSE2.1 kmh SSE 2.2 mph3.5 kmh 29.63 in1003.4 mb 0.00 in0.0 mm 0.00 in0.0 mm 0.00 in0.0 mm
10:14 AM 54.3°F12.4°C 48.0°F8.9°C 79% 1.6 mph SSW2.6 kmh SSW 2.2 mph3.5 kmh 29.63 in1003.4 mb 0.00 in0.0 mm 0.00 in0.0 mm 0.00 in0.0 mm
10:09 AM 54.5°F12.5°C 48.2°F9.0°C 79% 0.7 mph SW1.1 kmh SW 1.1 mph1.8 kmh 29.62 in1003.0 mb 0.00 in0.0 mm 0.00 in0.0 mm 0.00 in0.0 mm
10:04 AM 54.0°F12.2°C 47.7°F8.7°C 79% 1.6 mph SW2.6 kmh SW 2.2 mph3.5 kmh 29.63 in1003.4 mb 0.00 in0.0 mm 0.00 in0.0 mm 0.00 in0.0 mm
09:59 AM 54.0°F12.2°C 47.7°F8.7°C 79% 1.1 mph SW1.8 kmh SW 1.1 mph1.8 kmh 29.63 in1003.4 mb 0.00 in0.0 mm 0.00 in0.0 mm 0.00 in0.0 mm
09:54 AM 54.1°F12.3°C 48.0°F8.9°C 80% 1.1 mph SSW1.8 kmh SSW 1.1 mph1.8 kmh 29.63 in1003.4 mb 0.00 in0.0 mm 0.00 in0.0 mm 0.00 in0.0 mm
09:49 AM 54.0°F12.2°C 48.6°F9.2°C 82% 1.1 mph E1.8 kmh E 1.1 mph1.8 kmh 29.61 in1002.7 mb 0.00 in0.0 mm 0.00 in0.0 mm 0.00 in0.0 mm
09:44 AM 54.3°F12.4°C 48.9°F9.4°C 82% 0.9 mph SSW1.4 kmh SSW 1.1 mph1.8 kmh 29.61 in1002.7 mb 0.00 in0.0 mm 0.00 in0.0 mm 0.00 in0.0 mm
09:39 AM 54.7°F12.6°C 48.9°F9.4°C 81% 0.9 mph S1.4 kmh S 1.1 mph1.8 kmh 29.61 in1002.7 mb 0.00 in0.0 mm 0.00 in0.0 mm 0.00 in0.0 mm
09:34 AM 54.7°F12.6°C 48.4°F9.1°C 79% 3.4 mph ESE5.5 kmh ESE 3.4 mph5.5 kmh 29.61 in1002.7 mb 0.00 in0.0 mm 0.00 in0.0 mm 0.00 in0.0 mm
09:29 AM 54.9°F12.7°C 48.6°F9.2°C 79% 2.0 mph S3.2 kmh S 3.4 mph5.5 kmh 29.62 in1003.0 mb 0.00 in0.0 mm 0.00 in0.0 mm 0.00 in0.0 mm
09:24 AM 54.5°F12.5°C 48.4°F9.1°C 80% 0.9 mph S1.4 kmh S 1.1 mph1.8 kmh 29.61 in1002.7 mb 0.00 in0.0 mm 0.00 in0.0 mm 0.00 in0.0 mm
09:19 AM 54.1°F12.3°C 48.0°F8.9°C 80% 1.1 mph SW1.8 kmh SW 1.1 mph1.8 kmh 29.61 in1002.7 mb 0.00 in0.0 mm 0.00 in0.0 mm 0.00 in0.0 mm
09:14 AM 53.8°F12.1°C 48.0°F8.9°C 81% 0.2 mph SSW0.3 kmh SSW 1.1 mph1.8 kmh 29.61 in1002.7 mb 0.00 in0.0 mm 0.00 in0.0 mm 0.00 in0.0 mm
09:09 AM 53.4°F11.9°C 48.4°F9.1°C 83% 1.6 mph SW2.6 kmh SW 2.2 mph3.5 kmh 29.61 in1002.7 mb 0.00 in0.0 mm 0.00 in0.0 mm 0.00 in0.0 mm
09:04 AM 53.2°F11.8°C 47.8°F8.8°C 82% 0.2 mph SW0.3 kmh SW 1.1 mph1.8 kmh 29.61 in1002.7 mb 0.00 in0.0 mm 0.00 in0.0 mm 0.00 in0.0 mm
08:59 AM 53.4°F11.9°C 48.0°F8.9°C 82% 1.6 mph SW2.6 kmh SW 2.2 mph3.5 kmh 29.61 in1002.7 mb 0.00 in0.0 mm 0.00 in0.0 mm 0.00 in0.0 mm
08:54 AM 53.2°F11.8°C 48.6°F9.2°C 84% 1.1 mph E1.8 kmh E 2.2 mph3.5 kmh 29.60 in1002.4 mb 0.00 in0.0 mm 0.00 in0.0 mm 0.00 in0.0 mm
08:49 AM 53.1°F11.7°C 48.4°F9.1°C 84% 1.6 mph NW2.6 kmh NW 2.2 mph3.5 kmh 29.60 in1002.4 mb 0.00 in0.0 mm 0.00 in0.0 mm 0.00 in0.0 mm
08:44 AM 52.7°F11.5°C 47.7°F8.7°C 83% 2.7 mph SE4.3 kmh SE 3.4 mph5.5 kmh 29.60 in1002.4 mb 0.00 in0.0 mm 0.00 in0.0 mm 0.00 in0.0 mm
08:39 AM 52.5°F11.4°C 48.2°F9.0°C 85% 1.3 mph W2.1 kmh W 3.4 mph5.5 kmh 29.60 in1002.4 mb 0.00 in0.0 mm 0.00 in0.0 mm 0.00 in0.0 mm
08:34 AM 52.9°F11.6°C 48.6°F9.2°C 85% 0.7 mph S1.1 kmh S 1.1 mph1.8 kmh 29.59 in1002.0 mb 0.00 in0.0 mm 0.00 in0.0 mm 0.00 in0.0 mm
08:29 AM 53.2°F11.8°C 48.9°F9.4°C 85% 1.3 mph WSW2.1 kmh WSW 2.2 mph3.5 kmh 29.60 in1002.4 mb 0.00 in0.0 mm 0.00 in0.0 mm 0.00 in0.0 mm
08:24 AM 53.1°F11.7°C 48.4°F9.1°C 84% 1.3 mph SSE2.1 kmh SSE 2.2 mph3.5 kmh 29.59 in1002.0 mb 0.00 in0.0 mm 0.00 in0.0 mm 0.00 in0.0 mm
08:19 AM 53.1°F11.7°C 48.7°F9.3°C 85% 1.3 mph SSE2.1 kmh SSE 2.2 mph3.5 kmh 29.58 in1001.7 mb 0.00 in0.0 mm 0.00 in0.0 mm 0.00 in0.0 mm
08:14 AM 52.9°F11.6°C 48.6°F9.2°C 85% 2.5 mph S4.0 kmh S 3.4 mph5.5 kmh 29.59 in1002.0 mb 0.00 in0.0 mm 0.00 in0.0 mm 0.00 in0.0 mm
08:09 AM 53.1°F11.7°C 48.7°F9.3°C 85% 1.6 mph NW2.6 kmh NW 2.2 mph3.5 kmh 29.58 in1001.7 mb 0.00 in0.0 mm 0.00 in0.0 mm 0.00 in0.0 mm
08:04 AM 52.5°F11.4°C 48.6°F9.2°C 86% 1.8 mph S2.9 kmh S 2.2 mph3.5 kmh 29.58 in1001.7 mb 0.00 in0.0 mm 0.00 in0.0 mm 0.00 in0.0 mm
07:59 AM 52.2°F11.2°C 48.4°F9.1°C 87% 1.8 mph SW2.9 kmh SW 2.2 mph3.5 kmh 29.58 in1001.7 mb 0.00 in0.0 mm 0.00 in0.0 mm 0.00 in0.0 mm
07:54 AM 52.3°F11.3°C 49.1°F9.5°C 89% 1.3 mph S2.1 kmh S 2.2 mph3.5 kmh 29.58 in1001.7 mb 0.00 in0.0 mm 0.00 in0.0 mm 0.00 in0.0 mm
07:49 AM 52.5°F11.4°C 48.9°F9.4°C 88% 0.9 mph SW1.4 kmh SW 2.2 mph3.5 kmh 29.57 in1001.4 mb 0.00 in0.0 mm 0.00 in0.0 mm 0.00 in0.0 mm
07:44 AM 52.7°F11.5°C 49.8°F9.9°C 90% 0.2 mph SW0.3 kmh SW 1.1 mph1.8 kmh 29.57 in1001.4 mb 0.00 in0.0 mm 0.00 in0.0 mm 0.00 in0.0 mm
07:39 AM 52.2°F11.2°C 49.3°F9.6°C 90% 1.3 mph WSW2.1 kmh WSW 2.2 mph3.5 kmh 29.57 in1001.4 mb 0.00 in0.0 mm 0.00 in0.0 mm 0.00 in0.0 mm
07:34 AM 52.2°F11.2°C 49.3°F9.6°C 90% 2.0 mph SW3.2 kmh SW 3.4 mph5.5 kmh 29.57 in1001.4 mb 0.00 in0.0 mm 0.00 in0.0 mm 0.00 in0.0 mm
07:29 AM 52.2°F11.2°C 49.3°F9.6°C 90% Calm Calm -- 29.58 in1001.7 mb 0.00 in0.0 mm 0.00 in0.0 mm 0.00 in0.0 mm
07:24 AM 52.2°F11.2°C 49.6°F9.8°C 91% 0.9 mph SSW1.4 kmh SSW 1.1 mph1.8 kmh 29.57 in1001.4 mb 0.00 in0.0 mm 0.00 in0.0 mm 0.00 in0.0 mm
07:19 AM 52.0°F11.1°C 49.5°F9.7°C 91% 0.4 mph SW0.6 kmh SW 1.1 mph1.8 kmh 29.56 in1001.0 mb 0.00 in0.0 mm 0.00 in0.0 mm 0.00 in0.0 mm
07:14 AM 52.2°F11.2°C 49.6°F9.8°C 91% 0.9 mph SW1.4 kmh SW 1.1 mph1.8 kmh 29.56 in1001.0 mb 0.00 in0.0 mm 0.00 in0.0 mm 0.00 in0.0 mm
07:09 AM 52.3°F11.3°C 50.2°F10.1°C 92% 0.7 mph SSW1.1 kmh SSW 1.1 mph1.8 kmh 29.56 in1001.0 mb 0.00 in0.0 mm 0.00 in0.0 mm 0.00 in0.0 mm
07:04 AM 52.5°F11.4°C 50.4°F10.2°C 92% 0.7 mph SW1.1 kmh SW 1.1 mph1.8 kmh 29.57 in1001.4 mb 0.00 in0.0 mm 0.00 in0.0 mm 0.00 in0.0 mm
06:59 AM 52.5°F11.4°C 50.4°F10.2°C 92% 0.9 mph SSW1.4 kmh SSW 2.2 mph3.5 kmh 29.55 in1000.7 mb 0.00 in0.0 mm 0.00 in0.0 mm 0.00 in0.0 mm
06:54 AM 52.7°F11.5°C 50.2°F10.1°C 91% 0.4 mph SSW0.6 kmh SSW 1.1 mph1.8 kmh 29.56 in1001.0 mb 0.00 in0.0 mm 0.00 in0.0 mm 0.00 in0.0 mm
06:49 AM 52.7°F11.5°C 50.2°F10.1°C 91% 0.9 mph NE1.4 kmh NE 2.2 mph3.5 kmh 29.56 in1001.0 mb 0.00 in0.0 mm 0.00 in0.0 mm 0.00 in0.0 mm
06:44 AM 52.9°F11.6°C 50.0°F10.0°C 90% 1.3 mph S2.1 kmh S 2.2 mph3.5 kmh 29.56 in1001.0 mb 0.00 in0.0 mm 0.00 in0.0 mm 0.00 in0.0 mm
06:39 AM 53.2°F11.8°C 50.0°F10.0°C 89% 3.4 mph WSW5.5 kmh WSW 4.5 mph7.2 kmh 29.55 in1000.7 mb 0.00 in0.0 mm 0.00 in0.0 mm 0.00 in0.0 mm
06:34 AM 53.2°F11.8°C 50.0°F10.0°C 89% 0.9 mph W1.4 kmh W 2.2 mph3.5 kmh 29.55 in1000.7 mb 0.00 in0.0 mm 0.00 in0.0 mm 0.00 in0.0 mm
06:29 AM 53.1°F11.7°C 50.2°F10.1°C 90% 0.9 mph S1.4 kmh S 1.1 mph1.8 kmh 29.55 in1000.7 mb 0.00 in0.0 mm 0.00 in0.0 mm 0.00 in0.0 mm
06:24 AM 53.1°F11.7°C 50.5°F10.3°C 91% 0.2 mph S0.3 kmh S 1.1 mph1.8 kmh 29.54 in1000.3 mb 0.00 in0.0 mm 0.00 in0.0 mm 0.00 in0.0 mm
06:19 AM 53.1°F11.7°C 50.5°F10.3°C 91% 0.2 mph E0.3 kmh E 1.1 mph1.8 kmh 29.55 in1000.7 mb 0.00 in0.0 mm 0.00 in0.0 mm 0.00 in0.0 mm
06:14 AM 53.2°F11.8°C 50.4°F10.2°C 90% 0.7 mph SSW1.1 kmh SSW 2.2 mph3.5 kmh 29.54 in1000.3 mb 0.00 in0.0 mm 0.00 in0.0 mm 0.00 in0.0 mm
06:09 AM 53.4°F11.9°C 50.9°F10.5°C 91% 0.4 mph SW0.6 kmh SW 1.1 mph1.8 kmh 29.54 in1000.3 mb 0.00 in0.0 mm 0.00 in0.0 mm 0.00 in0.0 mm
06:04 AM 53.4°F11.9°C 50.9°F10.5°C 91% 0.9 mph SW1.4 kmh SW 1.1 mph1.8 kmh 29.53 in1000.0 mb 0.00 in0.0 mm 0.00 in0.0 mm 0.00 in0.0 mm
05:59 AM 53.4°F11.9°C 51.3°F10.7°C 92% 2.0 mph SW3.2 kmh SW 3.4 mph5.5 kmh 29.54 in1000.3 mb 0.00 in0.0 mm 0.00 in0.0 mm 0.00 in0.0 mm
05:54 AM 53.4°F11.9°C 51.3°F10.7°C 92% 0.7 mph SSW1.1 kmh SSW 1.1 mph1.8 kmh 29.54 in1000.3 mb 0.00 in0.0 mm 0.00 in0.0 mm 0.00 in0.0 mm
05:49 AM 53.4°F11.9°C 51.3°F10.7°C 92% Calm Calm -- 29.53 in1000.0 mb 0.00 in0.0 mm 0.00 in0.0 mm 0.00 in0.0 mm
05:44 AM 53.4°F11.9°C 51.3°F10.7°C 92% 1.3 mph SW2.1 kmh SW 2.2 mph3.5 kmh 29.54 in1000.3 mb 0.00 in0.0 mm 0.00 in0.0 mm 0.00 in0.0 mm
05:39 AM 53.4°F11.9°C 50.9°F10.5°C 91% 0.7 mph SSW1.1 kmh SSW 1.1 mph1.8 kmh 29.54 in1000.3 mb 0.00 in0.0 mm 0.00 in0.0 mm 0.00 in0.0 mm
05:34 AM 53.4°F11.9°C 50.9°F10.5°C 91% 0.2 mph SSW0.3 kmh SSW 1.1 mph1.8 kmh 29.53 in1000.0 mb 0.00 in0.0 mm 0.00 in0.0 mm 0.00 in0.0 mm
05:29 AM 53.4°F11.9°C 51.3°F10.7°C 92% 0.4 mph SSW0.6 kmh SSW 1.1 mph1.8 kmh 29.54 in1000.3 mb 0.00 in0.0 mm 0.00 in0.0 mm 0.00 in0.0 mm
05:24 AM 53.6°F12.0°C 51.4°F10.8°C 92% 0.2 mph SSW0.3 kmh SSW 1.1 mph1.8 kmh 29.53 in1000.0 mb 0.00 in0.0 mm 0.00 in0.0 mm 0.00 in0.0 mm
05:19 AM 53.8°F12.1°C 51.3°F10.7°C 91% Calm Calm -- 29.53 in1000.0 mb 0.00 in0.0 mm 0.00 in0.0 mm 0.00 in0.0 mm
05:14 AM 53.8°F12.1°C 51.3°F10.7°C 91% 0.9 mph S1.4 kmh S 1.1 mph1.8 kmh 29.53 in1000.0 mb 0.00 in0.0 mm 0.00 in0.0 mm 0.00 in0.0 mm
05:09 AM 53.8°F12.1°C 51.3°F10.7°C 91% 1.3 mph SSW2.1 kmh SSW 2.2 mph3.5 kmh 29.52 in999.7 mb 0.00 in0.0 mm 0.00 in0.0 mm 0.00 in0.0 mm
05:04 AM 53.8°F12.1°C 51.3°F10.7°C 91% 0.4 mph SSW0.6 kmh SSW 1.1 mph1.8 kmh 29.53 in1000.0 mb 0.00 in0.0 mm 0.00 in0.0 mm 0.00 in0.0 mm
04:59 AM 53.8°F12.1°C 51.3°F10.7°C 91% Calm Calm -- 29.52 in999.7 mb 0.00 in0.0 mm 0.00 in0.0 mm 0.00 in0.0 mm
04:54 AM 53.8°F12.1°C 51.6°F10.9°C 92% 0.4 mph SSW0.6 kmh SSW 1.1 mph1.8 kmh 29.52 in999.7 mb 0.00 in0.0 mm 0.00 in0.0 mm 0.00 in0.0 mm
04:49 AM 53.8°F12.1°C 51.6°F10.9°C 92% Calm Calm -- 29.52 in999.7 mb 0.00 in0.0 mm 0.00 in0.0 mm 0.00 in0.0 mm
04:44 AM 53.8°F12.1°C 51.6°F10.9°C 92% 0.7 mph SW1.1 kmh SW 1.1 mph1.8 kmh 29.52 in999.7 mb 0.00 in0.0 mm 0.00 in0.0 mm 0.00 in0.0 mm
04:39 AM 54.0°F12.2°C 51.8°F11.0°C 92% 0.2 mph SSW0.3 kmh SSW 1.1 mph1.8 kmh 29.52 in999.7 mb 0.00 in0.0 mm 0.00 in0.0 mm 0.00 in0.0 mm
04:34 AM 53.8°F12.1°C 51.3°F10.7°C 91% 0.4 mph SSW0.6 kmh SSW 1.1 mph1.8 kmh 29.52 in999.7 mb 0.00 in0.0 mm 0.00 in0.0 mm 0.00 in0.0 mm
04:29 AM 54.0°F12.2°C 51.4°F10.8°C 91% Calm Calm -- 29.52 in999.7 mb 0.00 in0.0 mm 0.00 in0.0 mm 0.00 in0.0 mm
04:24 AM 54.1°F12.3°C 52.0°F11.1°C 92% 0.2 mph SW0.3 kmh SW 1.1 mph1.8 kmh 29.52 in999.7 mb 0.00 in0.0 mm 0.00 in0.0 mm 0.00 in0.0 mm
04:19 AM 54.0°F12.2°C 51.4°F10.8°C 91% 2.0 mph ENE3.2 kmh ENE 2.2 mph3.5 kmh 29.52 in999.7 mb 0.00 in0.0 mm 0.00 in0.0 mm 0.00 in0.0 mm
04:14 AM 54.0°F12.2°C 51.8°F11.0°C 92% 0.7 mph SW1.1 kmh SW 1.1 mph1.8 kmh 29.52 in999.7 mb 0.00 in0.0 mm 0.00 in0.0 mm 0.00 in0.0 mm
04:09 AM 54.1°F12.3°C 52.2°F11.2°C 93% 0.7 mph SSW1.1 kmh SSW 1.1 mph1.8 kmh 29.51 in999.3 mb 0.00 in0.0 mm 0.00 in0.0 mm 0.00 in0.0 mm
04:04 AM 54.1°F12.3°C 52.2°F11.2°C 93% Calm Calm -- 29.50 in999.0 mb 0.00 in0.0 mm 0.00 in0.0 mm 0.00 in0.0 mm
03:59 AM 54.1°F12.3°C 52.0°F11.1°C 92% Calm Calm -- 29.51 in999.3 mb 0.00 in0.0 mm 0.00 in0.0 mm 0.00 in0.0 mm
03:54 AM 54.3°F12.4°C 52.2°F11.2°C 92% 0.9 mph SSW1.4 kmh SSW 1.1 mph1.8 kmh 29.50 in999.0 mb 0.00 in0.0 mm 0.00 in0.0 mm 0.00 in0.0 mm
03:49 AM 54.5°F12.5°C 52.3°F11.3°C 92% Calm Calm -- 29.50 in999.0 mb 0.00 in0.0 mm 0.00 in0.0 mm 0.00 in0.0 mm
03:44 AM 54.5°F12.5°C 52.0°F11.1°C 91% Calm Calm -- 29.50 in999.0 mb 0.00 in0.0 mm 0.00 in0.0 mm 0.00 in0.0 mm
03:39 AM 54.5°F12.5°C 52.3°F11.3°C 92% 1.3 mph SSW2.1 kmh SSW 2.2 mph3.5 kmh 29.50 in999.0 mb 0.00 in0.0 mm 0.00 in0.0 mm 0.00 in0.0 mm
03:34 AM 54.3°F12.4°C 52.3°F11.3°C 93% Calm Calm -- 29.50 in999.0 mb 0.00 in0.0 mm 0.00 in0.0 mm 0.00 in0.0 mm
03:29 AM 54.5°F12.5°C 52.5°F11.4°C 93% Calm Calm -- 29.50 in999.0 mb 0.00 in0.0 mm 0.00 in0.0 mm 0.00 in0.0 mm
03:24 AM 54.5°F12.5°C 52.5°F11.4°C 93% Calm Calm -- 29.50 in999.0 mb 0.00 in0.0 mm 0.00 in0.0 mm 0.00 in0.0 mm
03:19 AM 54.7°F12.6°C 52.5°F11.4°C 92% Calm Calm -- 29.50 in999.0 mb 0.00 in0.0 mm 0.00 in0.0 mm 0.00 in0.0 mm
03:14 AM 54.7°F12.6°C 52.5°F11.4°C 92% Calm Calm -- 29.50 in999.0 mb 0.00 in0.0 mm 0.00 in0.0 mm 0.00 in0.0 mm
03:09 AM 54.5°F12.5°C 52.3°F11.3°C 92% 0.4 mph SSW0.6 kmh SSW 1.1 mph1.8 kmh 29.50 in999.0 mb 0.00 in0.0 mm 0.00 in0.0 mm 0.00 in0.0 mm
03:04 AM 54.7°F12.6°C 52.5°F11.4°C 92% 0.2 mph SW0.3 kmh SW 1.1 mph1.8 kmh 29.50 in999.0 mb 0.00 in0.0 mm 0.00 in0.0 mm 0.00 in0.0 mm
02:59 AM 54.9°F12.7°C 52.9°F11.6°C 93% Calm Calm -- 29.50 in999.0 mb 0.00 in0.0 mm 0.00 in0.0 mm 0.00 in0.0 mm
02:54 AM 54.7°F12.6°C 52.7°F11.5°C 93% Calm Calm -- 29.50 in999.0 mb 0.00 in0.0 mm 0.00 in0.0 mm 0.00 in0.0 mm
02:49 AM 54.9°F12.7°C 52.9°F11.6°C 93% Calm Calm -- 29.49 in998.6 mb 0.00 in0.0 mm 0.00 in0.0 mm 0.00 in0.0 mm
02:44 AM 54.7°F12.6°C 52.7°F11.5°C 93% Calm Calm -- 29.49 in998.6 mb 0.00 in0.0 mm 0.00 in0.0 mm 0.00 in0.0 mm
02:39 AM 54.9°F12.7°C 52.9°F11.6°C 93% 0.2 mph SW0.3 kmh SW 1.1 mph1.8 kmh 29.49 in998.6 mb 0.00 in0.0 mm 0.00 in0.0 mm 0.00 in0.0 mm
02:34 AM 55.0°F12.8°C 52.9°F11.6°C 92% Calm Calm -- 29.49 in998.6 mb 0.00 in0.0 mm 0.00 in0.0 mm 0.00 in0.0 mm
02:29 AM 55.0°F12.8°C 52.5°F11.4°C 91% 0.7 mph SW1.1 kmh SW 1.1 mph1.8 kmh 29.49 in998.6 mb 0.00 in0.0 mm 0.00 in0.0 mm 0.00 in0.0 mm
02:24 AM 55.0°F12.8°C 52.2°F11.2°C 90% 0.9 mph WSW1.4 kmh WSW 2.2 mph3.5 kmh 29.49 in998.6 mb 0.00 in0.0 mm 0.00 in0.0 mm 0.00 in0.0 mm
02:19 AM 55.0°F12.8°C 52.5°F11.4°C 91% 0.9 mph SW1.4 kmh SW 1.1 mph1.8 kmh 29.49 in998.6 mb 0.00 in0.0 mm 0.00 in0.0 mm 0.00 in0.0 mm
02:14 AM 55.0°F12.8°C 52.5°F11.4°C 91% 0.9 mph WSW1.4 kmh WSW 1.1 mph1.8 kmh 29.48 in998.3 mb 0.00 in0.0 mm 0.00 in0.0 mm 0.00 in0.0 mm
02:09 AM 55.2°F12.9°C 52.7°F11.5°C 91% 0.2 mph WSW0.3 kmh WSW 1.1 mph1.8 kmh 29.49 in998.6 mb 0.00 in0.0 mm 0.00 in0.0 mm 0.00 in0.0 mm
02:04 AM 55.4°F13.0°C 52.9°F11.6°C 91% 1.8 mph S2.9 kmh S 2.2 mph3.5 kmh 29.48 in998.3 mb 0.00 in0.0 mm 0.00 in0.0 mm 0.00 in0.0 mm
01:59 AM 55.6°F13.1°C 53.1°F11.7°C 91% 0.9 mph SW1.4 kmh SW 1.1 mph1.8 kmh 29.48 in998.3 mb 0.00 in0.0 mm 0.00 in0.0 mm 0.00 in0.0 mm
01:54 AM 55.8°F13.2°C 53.2°F11.8°C 91% 1.6 mph WSW2.6 kmh WSW 3.4 mph5.5 kmh 29.48 in998.3 mb 0.00 in0.0 mm 0.00 in0.0 mm 0.00 in0.0 mm
01:49 AM 55.8°F13.2°C 53.6°F12.0°C 92% 1.1 mph SW1.8 kmh SW 1.1 mph1.8 kmh 29.48 in998.3 mb 0.00 in0.0 mm 0.00 in0.0 mm 0.00 in0.0 mm
01:44 AM 55.9°F13.3°C 54.0°F12.2°C 93% 0.9 mph SW1.4 kmh SW 1.1 mph1.8 kmh 29.48 in998.3 mb 0.00 in0.0 mm 0.00 in0.0 mm 0.00 in0.0 mm
01:39 AM 56.1°F13.4°C 54.3°F12.4°C 94% 0.2 mph SW0.3 kmh SW 1.1 mph1.8 kmh 29.48 in998.3 mb 0.00 in0.0 mm 0.00 in0.0 mm 0.00 in0.0 mm
01:34 AM 56.1°F13.4°C 54.3°F12.4°C 94% 0.4 mph SW0.6 kmh SW 1.1 mph1.8 kmh 29.49 in998.6 mb 0.00 in0.0 mm 0.00 in0.0 mm 0.00 in0.0 mm
01:29 AM 56.1°F13.4°C 54.3°F12.4°C 94% 1.3 mph SW2.1 kmh SW 2.2 mph3.5 kmh 29.49 in998.6 mb 0.00 in0.0 mm 0.00 in0.0 mm 0.00 in0.0 mm
01:24 AM 55.9°F13.3°C 54.5°F12.5°C 95% 0.9 mph WSW1.4 kmh WSW 1.1 mph1.8 kmh 29.49 in998.6 mb 0.00 in0.0 mm 0.00 in0.0 mm 0.00 in0.0 mm
01:19 AM 55.9°F13.3°C 54.5°F12.5°C 95% Calm Calm -- 29.49 in998.6 mb 0.00 in0.0 mm 0.00 in0.0 mm 0.00 in0.0 mm
01:14 AM 55.9°F13.3°C 54.5°F12.5°C 95% Calm Calm -- 29.49 in998.6 mb 0.00 in0.0 mm 0.00 in0.0 mm 0.00 in0.0 mm
01:09 AM 55.9°F13.3°C 54.5°F12.5°C 95% 2.2 mph NE3.5 kmh NE 3.4 mph5.5 kmh 29.49 in998.6 mb 0.00 in0.0 mm 0.00 in0.0 mm 0.00 in0.0 mm
01:04 AM 55.9°F13.3°C 54.9°F12.7°C 96% Calm Calm -- 29.49 in998.6 mb 0.00 in0.0 mm 0.00 in0.0 mm 0.00 in0.0 mm
12:59 AM 56.1°F13.4°C 55.0°F12.8°C 96% 0.9 mph SW1.4 kmh SW 1.1 mph1.8 kmh 29.49 in998.6 mb 0.00 in0.0 mm 0.00 in0.0 mm 0.00 in0.0 mm
12:54 AM 56.1°F13.4°C 55.0°F12.8°C 96% Calm Calm -- 29.50 in999.0 mb 0.00 in0.0 mm 0.00 in0.0 mm 0.00 in0.0 mm
12:49 AM 56.5°F13.6°C 55.4°F13.0°C 96% 0.7 mph SW1.1 kmh SW 1.1 mph1.8 kmh 29.50 in999.0 mb 0.00 in0.0 mm 0.00 in0.0 mm 0.00 in0.0 mm
12:44 AM 56.5°F13.6°C 55.4°F13.0°C 96% Calm Calm -- 29.49 in998.6 mb 0.00 in0.0 mm 0.00 in0.0 mm 0.00 in0.0 mm
12:39 AM 56.5°F13.6°C 55.4°F13.0°C 96% Calm Calm -- 29.49 in998.6 mb 0.00 in0.0 mm 0.00 in0.0 mm 0.00 in0.0 mm
12:34 AM 56.5°F13.6°C 55.4°F13.0°C 96% 0.2 mph SW0.3 kmh SW 1.1 mph1.8 kmh 29.48 in998.3 mb 0.00 in0.0 mm 0.00 in0.0 mm 0.00 in0.0 mm
12:29 AM 56.5°F13.6°C 55.4°F13.0°C 96% Calm Calm -- 29.49 in998.6 mb 0.00 in0.0 mm 0.00 in0.0 mm 0.00 in0.0 mm
12:24 AM 56.5°F13.6°C 55.4°F13.0°C 96% Calm Calm -- 29.49 in998.6 mb 0.00 in0.0 mm 0.00 in0.0 mm 0.00 in0.0 mm
12:19 AM 56.7°F13.7°C 55.6°F13.1°C 96% 0.4 mph SW0.6 kmh SW 1.1 mph1.8 kmh 29.49 in998.6 mb 0.00 in0.0 mm 0.00 in0.0 mm 0.00 in0.0 mm
12:14 AM 56.8°F13.8°C 55.8°F13.2°C 96% 0.7 mph WSW1.1 kmh WSW 1.1 mph1.8 kmh 29.50 in999.0 mb 0.00 in0.0 mm 0.00 in0.0 mm 0.00 in0.0 mm
12:09 AM 57.0°F13.9°C 56.3°F13.5°C 97% 0.2 mph W0.3 kmh W 1.1 mph1.8 kmh 29.49 in998.6 mb 0.00 in0.0 mm 0.00 in0.0 mm 0.00 in0.0 mm
12:04 AM 57.0°F13.9°C 56.3°F13.5°C 97% Calm Calm -- 29.50 in999.0 mb 0.00 in0.0 mm 0.00 in0.0 mm 0.00 in0.0 mm